»·PEaware :: PH-TIM KIFP-KLAS

PH-TIM :: KIFP-KLAS

FLIGHT INFORMATION

Flight Status: Arrived
Operator: Privately registered:
Netherlands
More flights under this callsign
Pilot: Tim P. (6337)
Aircraft: CESSNA 172 SKYHAWK
(C172)
More flights by this aircraft type
Origin: KIFP Laughlin/Bullhead Intl
United States
Destination: KLAS McCarran Intl
United States
More flights between these airports :: More routes between these airports
Route: +
File this flight plan on PilotEdge
Remarks:
Altitude:
(Current/Filed)
7,500ft
Speed:
(Current/Filed)
0kts
Departed: 28-May-18 10:43 AM
Arrived: 28-May-18 11:37 AM
Distance/Time
Traveled:
64nm/0:54
Distance/Time
To Go:
Arrived

Flight Plot

Page will automatically refresh every two minutes.


Map Options




Map Legend


Flown Route
Filed Route
Departure Airport
Arrival Airport
Navaid (VOR, NDB)
Fix

Horizontal Profiles

Position Reports

Time Latitude Longitude Heading Altitude Ground
Speed
28-May-18 10:33 35.160139 -114.556548 273 677ft 0kts
28-May-18 10:34 35.160139 -114.556548 273 677ft 0kts
28-May-18 10:35 35.160139 -114.556548 273 677ft 0kts
28-May-18 10:36 35.160139 -114.556548 273 677ft 0kts
28-May-18 10:37 35.159521 -114.557686 265 665ft 15kts
28-May-18 10:38 35.156061 -114.558052 176 670ft 17kts
28-May-18 10:39 35.150533 -114.557643 176 678ft 20kts
28-May-18 10:40 35.145729 -114.557231 206 691ft 8kts
28-May-18 10:41 35.145561 -114.557490 299 690ft 0kts
28-May-18 10:42 35.145561 -114.557490 299 690ft 0kts
28-May-18 10:43 35.150989 -114.559080 353 719ft 70kts
28-May-18 10:44 35.171781 -114.563369 330 1505ft 77kts
28-May-18 10:45 35.184424 -114.584964 298 2265ft 80kts
28-May-18 10:46 35.198352 -114.606304 311 2995ft 81kts
28-May-18 10:47 35.207649 -114.630392 274 3689ft 81kts
28-May-18 10:48 35.202780 -114.657845 253 4337ft 84kts
28-May-18 10:49 35.197002 -114.680519 256 4858ft 84kts
28-May-18 10:50 35.185257 -114.705245 226 5424ft 87kts
28-May-18 10:51 35.166957 -114.725312 231 5964ft 88kts
28-May-18 10:52 35.154781 -114.750733 246 6502ft 86kts
28-May-18 10:53 35.150934 -114.778115 284 7038ft 81kts
28-May-18 10:54 35.159259 -114.804474 297 7503ft 83kts
28-May-18 10:55 35.174182 -114.832186 318 7587ft 109kts
28-May-18 10:56 35.203688 -114.846653 338 7384ft 114kts
28-May-18 10:57 35.233842 -114.856947 343 7294ft 103kts
28-May-18 10:58 35.261697 -114.865760 337 7450ft 99kts
28-May-18 10:59 35.290941 -114.872022 355 7462ft 108kts
28-May-18 11:00 35.319420 -114.873589 343 7535ft 108kts
28-May-18 11:01 35.347246 -114.880405 342 7946ft 96kts
28-May-18 11:02 35.373321 -114.883213 347 8394ft 91kts
28-May-18 11:03 35.400501 -114.888672 350 8564ft 109kts
28-May-18 11:04 35.430994 -114.891847 342 8785ft 110kts
28-May-18 11:05 35.461196 -114.903598 339 8626ft 116kts
28-May-18 11:06 35.491652 -114.915676 335 8510ft 114kts
28-May-18 11:07 35.521800 -114.926870 358 8463ft 113kts
28-May-18 11:08 35.553811 -114.922452 2 8461ft 117kts
28-May-18 11:09 35.585618 -114.912569 13 8497ft 119kts
28-May-18 11:10 35.617623 -114.904129 5 8543ft 117kts
28-May-18 11:11 35.649812 -114.897927 2 8583ft 117kts
28-May-18 11:12 35.682099 -114.892736 0 8623ft 116kts
28-May-18 11:13 35.714411 -114.889447 0 8657ft 117kts
28-May-18 11:14 35.746845 -114.882782 5 8643ft 120kts
28-May-18 11:15 35.779197 -114.876750 357 8671ft 116kts
28-May-18 11:16 35.811590 -114.871776 1 8580ft 119kts
28-May-18 11:17 35.843294 -114.861076 47 8406ft 135kts
28-May-18 11:18 35.822799 -114.843956 215 8149ft 121kts
28-May-18 11:19 35.803757 -114.871937 294 7387ft 114kts
28-May-18 11:20 35.828595 -114.890782 2 6654ft 113kts
28-May-18 11:21 35.857897 -114.881993 9 6392ft 107kts
28-May-18 11:22 35.886880 -114.873561 6 5988ft 106kts
28-May-18 11:23 35.915668 -114.865820 0 5396ft 105kts
28-May-18 11:24 35.943950 -114.859006 353 4887ft 101kts
28-May-18 11:25 35.962860 -114.884417 312 4706ft 107kts
28-May-18 11:26 35.984849 -114.911320 316 4774ft 114kts
28-May-18 11:27 36.006547 -114.943702 300 4436ft 122kts
28-May-18 11:28 36.022562 -114.980193 299 4309ft 122kts
28-May-18 11:29 36.037616 -115.017821 295 4011ft 125kts
28-May-18 11:30 36.052329 -115.058459 297 3449ft 135kts
28-May-18 11:31 36.068479 -115.098454 299 3144ft 126kts
28-May-18 11:32 36.073959 -115.134838 199 3109ft 136kts
28-May-18 11:33 36.042885 -115.150486 268 3411ft 106kts
28-May-18 11:34 36.051662 -115.176313 312 3117ft 71kts
28-May-18 11:35 36.068529 -115.174274 20 2484ft 61kts
28-May-18 11:36 36.083315 -115.165786 20 2156ft 50kts
28-May-18 11:37 36.089437 -115.163617 289 2129ft 0kts
28-May-18 11:38 36.089437 -115.163617 289 2129ft 0kts
28-May-18 11:39 36.090475 -115.164084 23 2128ft 15kts
28-May-18 11:40 36.095246 -115.161349 24 2106ft 21kts
28-May-18 11:41 36.098430 -115.161399 2 2102ft 7kts
28-May-18 11:42 36.098429 -115.161099 134 2101ft 0kts
28-May-18 11:43 36.098429 -115.161099 134 2101ft 0kts
28-May-18 11:44 36.098429 -115.161099 134 2101ft 0kts
28-May-18 11:45 36.098429 -115.161099 134 2101ft 0kts
28-May-18 11:46 36.098429 -115.161099 134 2101ft 0kts
28-May-18 11:47 36.098429 -115.161099 134 2101ft 0kts

Navigation Log

Ident Type
1. KIFP Airport
2. KLAS Airport